createdAt,value
2016-06-11T00:00:01.460Z,43.61
2016-06-11T00:01:01.479Z,42.84
2016-06-11T00:02:01.545Z,43.8
2016-06-11T00:03:01.595Z,43.4
2016-06-11T00:04:01.629Z,43.51
2016-06-11T00:05:01.679Z,41.59
2016-06-11T00:06:01.744Z,44.17
2016-06-11T00:07:01.779Z,43.49
2016-06-11T00:08:01.814Z,43.68
2016-06-11T00:09:01.878Z,42.63
2016-06-11T00:10:01.914Z,42.43
2016-06-11T00:11:01.994Z,44.26
2016-06-11T00:12:02.012Z,44.45
2016-06-11T00:13:02.063Z,44.07
2016-06-11T00:14:02.129Z,44.84
2016-06-11T00:15:02.179Z,44.26
2016-06-11T00:16:02.057Z,43.4
2016-06-11T00:17:02.262Z,44.26
2016-06-11T00:18:02.313Z,41.47
2016-06-11T00:19:02.347Z,43.97
2016-06-11T00:20:02.428Z,44.62
2016-06-11T00:21:02.462Z,44.26
2016-06-11T00:22:02.497Z,42.43
2016-06-11T00:23:02.547Z,43.88
2016-06-11T00:24:02.581Z,45.13
2016-06-11T00:25:02.646Z,44.17
2016-06-11T00:26:02.713Z,41.66
2016-06-11T00:27:02.731Z,43.97
2016-06-11T00:28:02.797Z,43.88
2016-06-11T00:29:02.847Z,43.49
2016-06-11T00:30:02.881Z,44.17
2016-06-11T00:31:02.946Z,43.49
2016-06-11T00:32:02.996Z,42.43
2016-06-11T00:33:03.031Z,43.78
2016-06-11T00:34:03.080Z,44.35
2016-06-11T00:35:03.130Z,44.17
2016-06-11T00:36:03.165Z,44.35
2016-06-11T00:37:03.231Z,44.45
2016-06-11T00:38:03.280Z,42.63
2016-06-11T00:39:03.315Z,43.59
2016-06-11T00:40:03.364Z,43.59
2016-06-11T00:41:03.415Z,43.2
2016-06-11T00:42:03.465Z,43.4
2016-06-11T00:43:03.499Z,41.28
2016-06-11T00:44:03.580Z,44.17
2016-06-11T00:45:03.614Z,42.43
2016-06-11T00:46:03.664Z,43.59
2016-06-11T00:47:03.699Z,43.4
2016-06-11T00:48:03.749Z,43.11
2016-06-11T00:49:03.814Z,43.68
2016-06-11T00:50:03.848Z,41.66
2016-06-11T00:51:03.899Z,43.2
2016-06-11T00:52:03.949Z,44.07
2016-06-11T00:53:04.045Z,43.51
2016-06-11T00:54:04.033Z,39.76
2016-06-11T00:55:04.083Z,43.68
2016-06-11T00:56:04.148Z,42.43
2016-06-11T00:57:04.167Z,42.33
2016-06-11T00:58:04.216Z,44.07
2016-06-11T00:59:05.126Z,43.78
2016-06-11T01:00:04.926Z,44.17
2016-06-11T01:01:04.382Z,44.07
2016-06-11T01:02:04.432Z,43.78
2016-06-11T01:03:04.513Z,42.82
2016-06-11T01:04:04.563Z,42.91
2016-06-11T01:05:04.567Z,42.36
2016-06-11T01:06:04.600Z,43.11
2016-06-11T01:07:04.667Z,44.74
2016-06-11T01:08:04.747Z,44.74
2016-06-11T01:09:04.767Z,44.09
2016-06-11T01:10:04.816Z,44.19
2016-06-11T01:11:04.866Z,44.38
2016-06-11T01:12:04.916Z,43.9
2016-06-11T01:13:04.966Z,44.19
2016-06-11T01:14:04.844Z,43.61
2016-06-11T01:15:05.066Z,43.9
2016-06-11T01:16:05.084Z,42.36
2016-06-11T01:17:05.134Z,43.71
2016-06-11T01:18:05.201Z,44.48
2016-06-11T01:19:05.251Z,42.36
2016-06-11T01:20:05.284Z,44.19
2016-06-11T01:21:05.366Z,41.11
2016-06-11T01:22:05.400Z,43.61
2016-06-11T01:23:05.418Z,44.26
2016-06-11T01:24:05.500Z,45.22
2016-06-11T01:25:05.533Z,43.51
2016-06-11T01:26:05.569Z,44.28
2016-06-11T01:27:05.618Z,44.48
2016-06-11T01:28:05.684Z,44.09
2016-06-11T01:29:05.734Z,42.93
2016-06-11T01:30:05.627Z,44.28
2016-06-11T01:31:05.835Z,43.51
2016-06-11T01:32:05.852Z,44.28
2016-06-11T01:33:05.903Z,43.41
2016-06-11T01:34:05.968Z,43.61
2016-06-11T01:35:06.017Z,43.34
2016-06-11T01:36:06.068Z,43.34
2016-06-11T01:37:06.118Z,43.34
2016-06-11T01:38:06.168Z,41.51
2016-06-11T01:39:06.218Z,42.93
2016-06-11T01:40:06.252Z,42.46
2016-06-11T01:41:06.302Z,43.71
2016-06-11T01:42:06.353Z,43.71
2016-06-11T01:43:06.402Z,43.8
2016-06-11T01:44:06.436Z,44.67
2016-06-11T01:45:06.721Z,44.09
2016-06-11T01:46:06.551Z,42.46
2016-06-11T01:47:06.602Z,42.93
2016-06-11T01:48:06.636Z,42.93
2016-06-11T01:49:06.685Z,43.32
2016-06-11T01:50:06.768Z,43.8
2016-06-11T01:51:06.771Z,44.86
2016-06-11T01:52:06.819Z,44.19
2016-06-11T01:53:06.948Z,43.41
2016-06-11T01:54:06.936Z,43.99
2016-06-11T01:55:06.970Z,43.13
2016-06-11T01:56:07.036Z,43.88
2016-06-11T01:57:07.085Z,44.65
2016-06-11T01:58:07.120Z,43.11
2016-06-11T01:59:07.935Z,43.41
2016-06-11T02:00:07.516Z,43.61
2016-06-11T02:01:07.255Z,43.68
2016-06-11T02:02:07.304Z,43.59
2016-06-11T02:03:07.370Z,43.51
2016-06-11T02:04:07.389Z,44.26
2016-06-11T02:05:07.454Z,43.8
2016-06-11T02:06:07.504Z,43.97
2016-06-11T02:07:07.554Z,44.28
2016-06-11T02:08:07.604Z,43.8
2016-06-11T02:09:07.638Z,43.61
2016-06-11T02:10:07.689Z,42.84
2016-06-11T02:11:07.754Z,43.41
2016-06-11T02:12:07.788Z,44.17
2016-06-11T02:13:07.839Z,44.17
2016-06-11T02:14:08.029Z,44.35
2016-06-11T02:15:07.782Z,44.17
2016-06-11T02:16:07.987Z,44.07
2016-06-11T02:17:08.038Z,44.45
2016-06-11T02:18:08.104Z,44.26
2016-06-11T02:19:07.966Z,45.22
2016-06-11T02:20:08.188Z,45.13
2016-06-11T02:21:08.238Z,45.22
2016-06-11T02:22:08.272Z,44.74
2016-06-11T02:23:08.322Z,45.2
2016-06-11T02:24:08.373Z,45.39
2016-06-11T02:25:08.406Z,45.2
2016-06-11T02:26:08.456Z,46.06
2016-06-11T02:27:08.522Z,45.2
2016-06-11T02:28:08.541Z,46.06
2016-06-11T02:29:08.605Z,46.16
2016-06-11T02:30:09.500Z,46.36
2016-06-11T02:31:08.705Z,46.16
2016-06-11T02:32:08.756Z,47.3
2016-06-11T02:33:08.790Z,46.81
2016-06-11T02:34:08.840Z,46.62
2016-06-11T02:35:08.906Z,47.2
2016-06-11T02:36:08.940Z,47.58
2016-06-11T02:37:08.974Z,47.97
2016-06-11T02:38:09.040Z,47
2016-06-11T02:39:09.075Z,47.77
2016-06-11T02:40:09.124Z,47.49
2016-06-11T02:41:09.189Z,47.77
2016-06-11T02:42:09.239Z,47.58
2016-06-11T02:43:09.274Z,47.97
2016-06-11T02:44:09.746Z,48.83
2016-06-11T02:45:09.358Z,48.81
2016-06-11T02:46:09.423Z,49
2016-06-11T02:47:09.474Z,49.38
2016-06-11T02:48:09.508Z,49.48
2016-06-11T02:49:09.574Z,49.57
2016-06-11T02:50:09.623Z,50.05
2016-06-11T02:51:09.642Z,50.13
2016-06-11T02:52:09.708Z,50.05
2016-06-11T02:53:09.821Z,49.96
2016-06-11T02:54:09.792Z,49.96
2016-06-11T02:55:09.842Z,49.96
2016-06-11T02:56:09.892Z,50.23
2016-06-11T02:57:09.958Z,50.61
2016-06-11T02:58:09.991Z,51.06
2016-06-11T02:59:10.026Z,52.02
2016-06-11T03:00:10.092Z,51.93
2016-06-11T03:01:10.142Z,52.12
2016-06-11T03:02:10.176Z,52.4
2016-06-11T03:03:10.227Z,52.4
2016-06-11T03:04:10.276Z,52.4
2016-06-11T03:05:10.310Z,51.76
2016-06-11T03:06:10.345Z,51.37
2016-06-11T03:07:10.410Z,51.18
2016-06-11T03:08:10.444Z,51.18
2016-06-11T03:09:10.511Z,51.28
2016-06-11T03:10:10.545Z,50.8
2016-06-11T03:11:10.595Z,51.28
2016-06-11T03:12:10.644Z,50.99
2016-06-11T03:13:10.693Z,50.54
2016-06-11T03:14:10.729Z,50.05
2016-06-11T03:15:11.232Z,49.96
2016-06-11T03:16:10.828Z,50.05
2016-06-11T03:17:10.878Z,50.15
2016-06-11T03:18:10.928Z,49.96
2016-06-11T03:19:10.978Z,49.87
2016-06-11T03:20:11.013Z,50.25
2016-06-11T03:21:11.078Z,50.44
2016-06-11T03:22:11.112Z,50.05
2016-06-11T03:23:11.022Z,50.92
2016-06-11T03:24:11.197Z,50.99
2016-06-11T03:25:11.246Z,51.28
2016-06-11T03:26:11.313Z,51.28
2016-06-11T03:27:11.362Z,51.28
2016-06-11T03:28:11.397Z,50.42
2016-06-11T03:29:11.306Z,50.9
2016-06-11T03:30:11.621Z,51.18
2016-06-11T03:31:11.531Z,52.43
2016-06-11T03:32:11.596Z,52.34
2016-06-11T03:33:11.646Z,52.43
2016-06-11T03:34:11.681Z,51.47
2016-06-11T03:35:11.731Z,51.47
2016-06-11T03:36:11.608Z,51.76
2016-06-11T03:37:11.831Z,52.31
2016-06-11T03:38:11.881Z,52.22
2016-06-11T03:39:11.914Z,53.56
2016-06-11T03:40:11.981Z,53.15
2016-06-11T03:41:12.015Z,53.66
2016-06-11T03:42:12.049Z,52.4
2016-06-11T03:43:12.115Z,52.89
2016-06-11T03:44:12.164Z,52.98
2016-06-11T03:45:12.199Z,52.4
2016-06-11T03:46:12.233Z,52.6
2016-06-11T03:47:12.298Z,52.69
2016-06-11T03:48:12.349Z,52.4
2016-06-11T03:49:12.399Z,52.69
2016-06-11T03:50:12.433Z,52.12
2016-06-11T03:51:12.482Z,51.95
2016-06-11T03:52:12.533Z,51.18
2016-06-11T03:53:12.614Z,52.43
2016-06-11T03:54:12.617Z,52.05
2016-06-11T03:55:12.683Z,53.46
2016-06-11T03:56:12.717Z,52.89
2016-06-11T03:57:12.751Z,53.08
2016-06-11T03:58:12.676Z,52.79
2016-06-11T03:59:12.868Z,52.79
2016-06-11T04:00:13.073Z,52.6
2016-06-11T04:01:12.951Z,52.22
2016-06-11T04:02:13.016Z,51.76
2016-06-11T04:03:13.035Z,51.76
2016-06-11T04:04:13.100Z,52.6
2016-06-11T04:05:13.150Z,52.98
2016-06-11T04:06:13.186Z,52.02
2016-06-11T04:07:13.235Z,52.69
2016-06-11T04:08:13.300Z,52.22
2016-06-11T04:09:13.335Z,52.98
2016-06-11T04:10:13.369Z,52.98
2016-06-11T04:11:13.435Z,52.5
2016-06-11T04:12:13.469Z,52.31
2016-06-11T04:13:13.535Z,52.12
2016-06-11T04:14:13.553Z,52.5
2016-06-11T04:15:14.073Z,52.98
2016-06-11T04:16:13.669Z,52.69
2016-06-11T04:17:13.703Z,52.12
2016-06-11T04:18:13.738Z,53.08
2016-06-11T04:19:13.803Z,52.89
2016-06-11T04:20:13.837Z,52.34
2016-06-11T04:21:13.888Z,52.14
2016-06-11T04:22:13.953Z,51.37
2016-06-11T04:23:13.988Z,51.67
2016-06-11T04:24:14.022Z,51.57
2016-06-11T04:25:14.088Z,50.8
2016-06-11T04:26:14.122Z,51.47
2016-06-11T04:27:14.187Z,51.95
2016-06-11T04:28:14.221Z,52.05
2016-06-11T04:29:14.272Z,51.37
2016-06-11T04:30:14.399Z,50.7
2016-06-11T04:31:14.372Z,51.57
2016-06-11T04:32:14.422Z,51.28
2016-06-11T04:33:14.472Z,51.37
2016-06-11T04:34:14.522Z,51.09
2016-06-11T04:35:14.540Z,51.57
2016-06-11T04:36:14.606Z,50.44
2016-06-11T04:37:14.656Z,50.99
2016-06-11T04:38:14.690Z,50.9
2016-06-11T04:39:14.755Z,51.28
2016-06-11T04:40:14.790Z,51.18
2016-06-11T04:41:14.839Z,52.12
2016-06-11T04:42:14.890Z,52.24
2016-06-11T04:43:14.924Z,51.67
2016-06-11T04:44:14.989Z,51.47
2016-06-11T04:45:15.040Z,51.37
2016-06-11T04:46:15.073Z,52.14
2016-06-11T04:47:15.123Z,51.11
2016-06-11T04:48:15.174Z,51.4
2016-06-11T04:49:15.208Z,50.85
2016-06-11T04:50:15.258Z,50.27
2016-06-11T04:51:15.308Z,50.59
2016-06-11T04:52:15.373Z,49.91
2016-06-11T04:53:15.470Z,49.63
2016-06-11T04:54:15.459Z,48.97
2016-06-11T04:55:15.507Z,48.69
2016-06-11T04:56:15.557Z,49.46
2016-06-11T04:57:15.592Z,48.88
2016-06-11T04:58:15.485Z,48.59
2016-06-11T04:59:15.708Z,48.02
2016-06-11T05:00:15.586Z,47.34
2016-06-11T05:01:15.775Z,47.92
2016-06-11T05:02:15.842Z,49.24
2016-06-11T05:03:15.876Z,49.43
2016-06-11T05:04:15.942Z,48.85
2016-06-11T05:05:15.976Z,48.83
2016-06-11T05:06:16.026Z,48.85
2016-06-11T05:07:16.076Z,48.66
2016-06-11T05:08:16.127Z,48.83
2016-06-11T05:09:16.160Z,49.89
2016-06-11T05:10:16.226Z,48.74
2016-06-11T05:11:16.119Z,50.08
2016-06-11T05:12:16.295Z,50.46
2016-06-11T05:13:16.376Z,50.37
2016-06-11T05:14:16.425Z,48.57
2016-06-11T05:15:16.444Z,50.08
2016-06-11T05:16:16.510Z,50.08
2016-06-11T05:17:16.544Z,50.18
2016-06-11T05:18:16.610Z,50.18
2016-06-11T05:19:16.644Z,50.08
2016-06-11T05:20:16.695Z,49.41
2016-06-11T05:21:16.760Z,49.6
2016-06-11T05:22:16.809Z,49.15
2016-06-11T05:23:16.843Z,47.99
2016-06-11T05:24:16.910Z,48.85
2016-06-11T05:25:16.943Z,48.85
2016-06-11T05:26:16.978Z,48.38
2016-06-11T05:27:17.028Z,48.28
2016-06-11T05:28:17.093Z,49.43
2016-06-11T05:29:17.112Z,49.31
2016-06-11T05:30:17.444Z,48.93
2016-06-11T05:31:17.212Z,48.28
2016-06-11T05:32:17.278Z,48.95
2016-06-11T05:33:17.328Z,48.57
2016-06-11T05:34:17.362Z,48.57
2016-06-11T05:35:17.412Z,48.08
2016-06-11T05:36:17.478Z,48.76
2016-06-11T05:37:17.511Z,48.08
2016-06-11T05:38:17.561Z,47.8
2016-06-11T05:39:17.628Z,47.41
2016-06-11T05:40:17.645Z,46.95
2016-06-11T05:41:17.695Z,48.57
2016-06-11T05:42:17.762Z,47.31
2016-06-11T05:43:17.796Z,47.61
2016-06-11T05:44:17.846Z,46.77
2016-06-11T05:45:17.927Z,47.34
2016-06-11T05:46:17.947Z,47.15
2016-06-11T05:47:17.980Z,46.67
2016-06-11T05:48:18.045Z,45.61
2016-06-11T05:49:18.095Z,46.57
2016-06-11T05:50:18.131Z,47.34
2016-06-11T05:51:18.179Z,46.67
2016-06-11T05:52:18.245Z,47.15
2016-06-11T05:53:18.327Z,46.38
2016-06-11T05:54:18.314Z,47.05
2016-06-11T05:55:18.380Z,46.67
2016-06-11T05:56:18.288Z,46.86
2016-06-11T05:57:18.514Z,46.19
2016-06-11T05:58:18.590Z,45.61
2016-06-11T05:59:18.680Z,45.51
2016-06-11T06:00:18.785Z,46.38
2016-06-11T06:01:19.018Z,45.99
2016-06-11T06:02:18.929Z,46.19
2016-06-11T06:03:19.010Z,47.13
2016-06-11T06:04:19.058Z,47.22
2016-06-11T06:05:19.123Z,46.36
2016-06-11T06:06:19.188Z,48.47
2016-06-11T06:07:19.245Z,47.13
2016-06-11T06:08:19.300Z,46.19
2016-06-11T06:09:19.340Z,46.86
2016-06-11T06:10:19.395Z,46.28
2016-06-11T06:11:19.466Z,46.09
2016-06-11T06:12:19.503Z,46.84
2016-06-11T06:13:19.554Z,47.51
2016-06-11T06:14:19.622Z,46.93
2016-06-11T06:15:19.674Z,47.31
2016-06-11T06:16:20.429Z,46.84
2016-06-11T06:17:19.761Z,47.22
2016-06-11T06:18:19.827Z,47.03
2016-06-11T06:19:19.846Z,48.95
2016-06-11T06:20:19.913Z,47.61
2016-06-11T06:21:19.948Z,47.22
2016-06-11T06:22:20.014Z,47.31
2016-06-11T06:23:20.049Z,46.47
2016-06-11T06:24:20.098Z,46.57
2016-06-11T06:25:20.147Z,47.05
2016-06-11T06:26:20.198Z,47.53
2016-06-11T06:27:20.232Z,46.57
2016-06-11T06:28:20.298Z,46.28
2016-06-11T06:29:20.348Z,46.28
2016-06-11T06:30:20.382Z,46.57
2016-06-11T06:31:20.432Z,47.34
2016-06-11T06:32:20.497Z,47.44
2016-06-11T06:33:20.533Z,47.24
2016-06-11T06:34:20.582Z,46.09
2016-06-11T06:35:20.631Z,46.67
2016-06-11T06:36:20.682Z,45.42
2016-06-11T06:37:20.779Z,45.32
2016-06-11T06:38:20.765Z,45.7
2016-06-11T06:39:20.816Z,47.05
2016-06-11T06:40:20.897Z,47.34
2016-06-11T06:41:20.916Z,46.57
2016-06-11T06:42:20.966Z,46.28
2016-06-11T06:43:20.876Z,44.93
2016-06-11T06:44:21.066Z,45.42
2016-06-11T06:45:21.162Z,47.31
2016-06-11T06:46:21.025Z,47.41
2016-06-11T06:47:21.216Z,47.31
2016-06-11T06:48:21.266Z,47.05
2016-06-11T06:49:21.143Z,46.19
2016-06-11T06:50:21.365Z,46.36
2016-06-11T06:51:21.416Z,47.13
2016-06-11T06:52:21.450Z,47.61
2016-06-11T06:53:21.546Z,47.53
2016-06-11T06:54:21.565Z,46.77
2016-06-11T06:55:21.600Z,47.05
2016-06-11T06:56:21.634Z,47.34
2016-06-11T06:57:21.699Z,47.92
2016-06-11T06:58:21.766Z,46.09
2016-06-11T06:59:21.799Z,46.67
2016-06-11T07:00:22.224Z,46.19
2016-06-11T07:01:22.275Z,46.47
2016-06-11T07:02:21.949Z,47.24
2016-06-11T07:03:21.984Z,46.19
2016-06-11T07:04:22.033Z,47.05
2016-06-11T07:05:22.099Z,47.34
2016-06-11T07:06:22.149Z,46.77
2016-06-11T07:07:22.184Z,47.15
2016-06-11T07:08:22.233Z,47.15
2016-06-11T07:09:22.283Z,46.67
2016-06-11T07:10:22.318Z,46.38
2016-06-11T07:11:22.383Z,47.24
2016-06-11T07:12:22.417Z,46.95
2016-06-11T07:13:22.483Z,46.77
2016-06-11T07:14:22.376Z,47.41
2016-06-11T07:15:22.568Z,47.51
2016-06-11T07:16:23.070Z,47.41
2016-06-11T07:17:22.667Z,47.34
2016-06-11T07:18:22.702Z,47.15
2016-06-11T07:19:22.767Z,46.47
2016-06-11T07:20:22.816Z,45.99
2016-06-11T07:21:22.852Z,45.53
2016-06-11T07:22:22.901Z,45.53
2016-06-11T07:23:22.967Z,45.53
2016-06-11T07:24:23.017Z,45.25
2016-06-11T07:25:23.051Z,45.25
2016-06-11T07:26:23.117Z,44.4
2016-06-11T07:27:23.166Z,44.98
2016-06-11T07:28:23.201Z,44.31
2016-06-11T07:29:23.267Z,43.82
2016-06-11T07:30:23.317Z,43.71
2016-06-11T07:31:23.585Z,45.13
2016-06-11T07:32:23.401Z,44.28
2016-06-11T07:33:23.450Z,44.28
2016-06-11T07:34:23.501Z,44.65
2016-06-11T07:35:23.551Z,45.13
2016-06-11T07:36:23.601Z,45.34
2016-06-11T07:37:23.635Z,44.19
2016-06-11T07:38:23.700Z,43.71
2016-06-11T07:39:23.735Z,43.61
2016-06-11T07:40:23.801Z,44.86
2016-06-11T07:41:23.850Z,45.25
2016-06-11T07:42:23.884Z,44.96
2016-06-11T07:43:23.951Z,44.02
2016-06-11T07:44:24.001Z,44.59
2016-06-11T07:45:24.112Z,44.59
2016-06-11T07:46:24.491Z,42.47
2016-06-11T07:47:23.994Z,43.44
2016-06-11T07:48:24.185Z,43.24
2016-06-11T07:49:24.234Z,44.4
2016-06-11T07:50:24.300Z,43.13
2016-06-11T07:51:24.334Z,43.71
2016-06-11T07:52:24.400Z,45.05
2016-06-11T07:53:24.481Z,44.28
2016-06-11T07:54:24.485Z,43.51
2016-06-11T07:55:24.550Z,43.03
2016-06-11T07:56:24.584Z,43.51
2016-06-11T07:57:24.633Z,44.38
2016-06-11T07:58:24.684Z,43.03
2016-06-11T07:59:24.734Z,43.99
2016-06-11T08:00:24.784Z,45.34
2016-06-11T08:01:24.850Z,43.71
2016-06-11T08:02:24.899Z,44.57
2016-06-11T08:03:24.934Z,44.86
2016-06-11T08:04:24.984Z,43.44
2016-06-11T08:05:25.018Z,42.11
2016-06-11T08:06:25.084Z,42.49
2016-06-11T08:07:25.133Z,42.86
2016-06-11T08:08:25.184Z,41.32
2016-06-11T08:09:25.233Z,41.41
2016-06-11T08:10:25.283Z,44.19
2016-06-11T08:11:25.333Z,42.28
2016-06-11T08:12:25.384Z,42.38
2016-06-11T08:13:25.433Z,42.47
2016-06-11T08:14:25.482Z,42.28
2016-06-11T08:15:25.533Z,43.34
2016-06-11T08:16:25.583Z,42.57
2016-06-11T08:17:25.633Z,42.47
2016-06-11T08:18:25.683Z,42.19
2016-06-11T08:19:25.734Z,42.47
2016-06-11T08:20:25.783Z,42.38
2016-06-11T08:21:25.832Z,41.44
2016-06-11T08:22:25.867Z,40.74
2016-06-11T08:23:25.933Z,41.41
2016-06-11T08:24:25.983Z,41.8
2016-06-11T08:25:26.017Z,42.46
2016-06-11T08:26:26.067Z,42.74
2016-06-11T08:27:26.148Z,42.74
2016-06-11T08:28:26.167Z,42.93
2016-06-11T08:29:26.232Z,43.99
2016-06-11T08:30:26.267Z,43.41
2016-06-11T08:31:26.332Z,43.71
2016-06-11T08:32:26.398Z,44.02
2016-06-11T08:33:26.416Z,43.73
2016-06-11T08:34:26.466Z,43.63
2016-06-11T08:35:26.532Z,44.02
2016-06-11T08:36:26.567Z,43.54
2016-06-11T08:37:26.617Z,43.94
2016-06-11T08:38:26.681Z,43.75
2016-06-11T08:39:26.731Z,44.32
2016-06-11T08:40:26.766Z,44.13
2016-06-11T08:41:26.832Z,43.27
2016-06-11T08:42:26.866Z,42.9
2016-06-11T08:43:26.932Z,42.49
2016-06-11T08:44:26.966Z,43.75
2016-06-11T08:45:27.016Z,43.85
2016-06-11T08:46:27.503Z,42.79
2016-06-11T08:47:27.131Z,43.85
2016-06-11T08:48:27.165Z,41.53
2016-06-11T08:49:27.231Z,41.05
2016-06-11T08:50:27.281Z,42.59
2016-06-11T08:51:27.315Z,42.42
2016-06-11T08:52:27.397Z,42.02
2016-06-11T08:53:27.478Z,41.46
2016-06-11T08:54:27.481Z,42.59
2016-06-11T08:55:27.531Z,42.4
2016-06-11T08:56:27.565Z,42.13
2016-06-11T08:57:27.631Z,42.32
2016-06-11T08:58:27.681Z,42.03
2016-06-11T08:59:27.715Z,42.9
2016-06-11T09:00:27.797Z,42.9
2016-06-11T09:01:28.049Z,42.9
2016-06-11T09:02:27.866Z,43.48
2016-06-11T09:03:27.915Z,43.46
2016-06-11T09:04:27.980Z,43
2016-06-11T09:05:28.014Z,43.48
2016-06-11T09:06:28.065Z,43.29
2016-06-11T09:07:28.131Z,43
2016-06-11T09:08:28.180Z,43
2016-06-11T09:09:28.215Z,42.52
2016-06-11T09:10:28.280Z,42.42
2016-06-11T09:11:28.330Z,42.42
2016-06-11T09:12:28.364Z,43
2016-06-11T09:13:28.430Z,43
2016-06-11T09:14:28.496Z,42.9
2016-06-11T09:15:28.530Z,43.38
2016-06-11T09:16:28.595Z,43.1
2016-06-11T09:17:28.629Z,43.58
2016-06-11T09:18:28.664Z,42.9
2016-06-11T09:19:28.730Z,43
2016-06-11T09:20:28.780Z,42.8
2016-06-11T09:21:28.846Z,42.44
2016-06-11T09:22:28.894Z,42.25
2016-06-11T09:23:28.930Z,42.83
2016-06-11T09:24:28.980Z,43.19
2016-06-11T09:25:29.029Z,42.8
2016-06-11T09:26:29.079Z,43.21
2016-06-11T09:27:29.146Z,42.9
2016-06-11T09:28:29.195Z,42.73
2016-06-11T09:29:29.074Z,43.02
2016-06-11T09:30:29.279Z,43.12
2016-06-11T09:31:29.986Z,42.93
2016-06-11T09:32:29.395Z,43.6
2016-06-11T09:33:29.445Z,43.6
2016-06-11T09:34:29.479Z,43.58
2016-06-11T09:35:29.529Z,42.54
2016-06-11T09:36:29.595Z,42.93
2016-06-11T09:37:29.629Z,42.8
2016-06-11T09:38:29.679Z,43.58
2016-06-11T09:39:29.744Z,43.38
2016-06-11T09:40:29.779Z,43.67
2016-06-11T09:41:29.829Z,43.79
2016-06-11T09:42:29.910Z,43.31
2016-06-11T09:43:29.944Z,43.87
2016-06-11T09:44:29.979Z,44.35
2016-06-11T09:45:30.045Z,43.89
2016-06-11T09:46:30.360Z,44.46
2016-06-11T09:47:30.160Z,43.79
2016-06-11T09:48:30.194Z,44.37
2016-06-11T09:49:30.243Z,44.73
2016-06-11T09:50:30.310Z,44.45
2016-06-11T09:51:30.344Z,44.35
2016-06-11T09:52:30.394Z,44.83
2016-06-11T09:53:30.506Z,44.76
2016-06-11T09:54:30.509Z,43.41
2016-06-11T09:55:30.543Z,44.37
2016-06-11T09:56:30.609Z,43.41
2016-06-11T09:57:30.674Z,43.7
2016-06-11T09:58:30.694Z,42.56
2016-06-11T09:59:30.759Z,42.56
2016-06-11T10:00:30.793Z,42.46
2016-06-11T10:01:31.405Z,43.52
2016-06-11T10:02:30.909Z,43.33
2016-06-11T10:03:30.959Z,43.52
2016-06-11T10:04:31.009Z,43.02
2016-06-11T10:05:30.918Z,43.72
2016-06-11T10:06:31.110Z,43.24
2016-06-11T10:07:31.158Z,43.04
2016-06-11T10:08:31.224Z,43.62
2016-06-11T10:09:31.258Z,43.43
2016-06-11T10:10:31.309Z,43.04
2016-06-11T10:11:31.359Z,43.14
2016-06-11T10:12:31.423Z,42.36
2016-06-11T10:13:31.473Z,42.66
2016-06-11T10:14:31.508Z,41.78
2016-06-11T10:15:31.574Z,41.2
2016-06-11T10:16:31.624Z,41.23
2016-06-11T10:17:31.658Z,41.13
2016-06-11T10:18:31.708Z,41.3
2016-06-11T10:19:31.774Z,41.4
2016-06-11T10:20:31.809Z,41.02
2016-06-11T10:21:31.873Z,40.94
2016-06-11T10:22:31.923Z,40.07
2016-06-11T10:23:31.973Z,39.78
2016-06-11T10:24:32.039Z,40.36
2016-06-11T10:25:32.073Z,40.45
2016-06-11T10:26:32.123Z,40.07
2016-06-11T10:27:32.189Z,40.94
2016-06-11T10:28:32.238Z,40.75
2016-06-11T10:29:32.273Z,40.17
2016-06-11T10:30:32.338Z,40.07
2016-06-11T10:31:32.404Z,40.19
2016-06-11T10:32:32.485Z,39.9
2016-06-11T10:33:32.504Z,39.7
2016-06-11T10:34:32.571Z,39.78
2016-06-11T10:35:32.588Z,39.97
2016-06-11T10:36:32.654Z,40.17
2016-06-11T10:37:32.689Z,39.29
2016-06-11T10:38:32.753Z,39.29
2016-06-11T10:39:32.803Z,40.07
2016-06-11T10:40:32.854Z,39.49
2016-06-11T10:41:32.919Z,38.91
2016-06-11T10:42:32.970Z,39.29
2016-06-11T10:43:33.003Z,38.83
2016-06-11T10:44:33.069Z,38.93
2016-06-11T10:45:33.119Z,38.83
2016-06-11T10:46:34.078Z,38.83
2016-06-11T10:47:33.203Z,38.46
2016-06-11T10:48:33.269Z,37.98
2016-06-11T10:49:33.304Z,37.81
2016-06-11T10:50:33.369Z,37.52
2016-06-11T10:51:33.435Z,37.52
2016-06-11T10:52:33.468Z,37.32
2016-06-11T10:53:33.566Z,37.32
2016-06-11T10:54:33.584Z,37.32
2016-06-11T10:55:33.635Z,37.42
2016-06-11T10:56:33.669Z,37.42
2016-06-11T10:57:33.734Z,35.89
2016-06-11T10:58:33.800Z,35.12
2016-06-11T10:59:33.834Z,35.72
2016-06-11T11:00:33.900Z,35.89
2016-06-11T11:01:33.949Z,35.33
2016-06-11T11:02:33.984Z,35.99
2016-06-11T11:03:34.050Z,35.13
2016-06-11T11:04:34.099Z,34.75
2016-06-11T11:05:34.180Z,34.63
2016-06-11T11:06:34.215Z,34.07
2016-06-11T11:07:34.249Z,33.87
2016-06-11T11:08:34.315Z,33.18
2016-06-11T11:09:34.365Z,32.14
2016-06-11T11:10:34.415Z,33.1
2016-06-11T11:11:34.464Z,32.81
2016-06-11T11:12:34.546Z,32.34
2016-06-11T11:13:34.565Z,32.44
2016-06-11T11:14:34.630Z,32.84
2016-06-11T11:15:34.680Z,33.51
2016-06-11T11:16:34.745Z,33.04
2016-06-11T11:17:34.828Z,31.78
2016-06-11T11:18:34.845Z,32.09
2016-06-11T11:19:34.896Z,31.89
2016-06-11T11:20:34.962Z,31.31
2016-06-11T11:21:34.996Z,30.73
2016-06-11T11:22:35.061Z,30.82
2016-06-11T11:23:35.127Z,30.54
2016-06-11T11:24:35.161Z,30.82
2016-06-11T11:25:35.211Z,31.02
2016-06-11T11:26:35.292Z,30.54
2016-06-11T11:27:35.342Z,31.59
2016-06-11T11:28:35.392Z,30.54
2016-06-11T11:29:35.426Z,29.85
2016-06-11T11:30:35.493Z,30.15
2016-06-11T11:31:35.980Z,29.85
2016-06-11T11:32:36.311Z,29
2016-06-11T11:33:35.642Z,29.58
2016-06-11T11:34:35.708Z,30.24
2016-06-11T11:35:35.757Z,29.77
2016-06-11T11:36:35.651Z,29.48
2016-06-11T11:37:35.873Z,30.07
2016-06-11T11:38:35.937Z,29.11
2016-06-11T11:39:35.973Z,29.87
2016-06-11T11:40:36.039Z,29.87
2016-06-11T11:41:36.072Z,29.85
2016-06-11T11:42:36.154Z,30.05
2016-06-11T11:43:36.204Z,28.9
2016-06-11T11:44:36.238Z,29.87
2016-06-11T11:45:36.319Z,30.18
2016-06-11T11:46:36.370Z,28.91
2016-06-11T11:47:36.575Z,29.6
2016-06-11T11:48:36.485Z,29.01
2016-06-11T11:49:36.535Z,30.16
2016-06-11T11:50:36.568Z,30.16
2016-06-11T11:51:36.635Z,30.26
2016-06-11T11:52:36.700Z,29.19
2016-06-11T11:53:36.891Z,29.87
2016-06-11T11:54:36.800Z,29.4
2016-06-11T11:55:36.850Z,29.69
2016-06-11T11:56:36.915Z,29.6
2016-06-11T11:57:36.965Z,29.5
2016-06-11T11:58:37.015Z,28.91
2016-06-11T11:59:37.065Z,29.69
2016-06-11T12:00:37.131Z,28.91
2016-06-11T12:01:37.213Z,30.08
2016-06-11T12:02:37.231Z,28.91
2016-06-11T12:03:37.297Z,28.81
2016-06-11T12:04:37.347Z,28.81
2016-06-11T12:05:37.395Z,28.72
2016-06-11T12:06:37.462Z,27.86
2016-06-11T12:07:37.512Z,28.44
2016-06-11T12:08:37.577Z,27.94
2016-06-11T12:09:37.612Z,28.04
2016-06-11T12:10:37.662Z,27.84
2016-06-11T12:11:37.727Z,27.56
2016-06-11T12:12:37.777Z,28.43
2016-06-11T12:13:37.828Z,28.74
2016-06-11T12:14:37.909Z,28.34
2016-06-11T12:15:37.958Z,27.78
2016-06-11T12:16:37.993Z,27.19
2016-06-11T12:17:38.058Z,27.79
2016-06-11T12:18:38.124Z,27.79
2016-06-11T12:19:38.158Z,27.97
2016-06-11T12:20:38.208Z,27.39
2016-06-11T12:21:38.274Z,27.69
2016-06-11T12:22:38.339Z,27.48
2016-06-11T12:23:38.389Z,27.78
2016-06-11T12:24:38.439Z,27.21
2016-06-11T12:25:38.505Z,26.62
2016-06-11T12:26:38.554Z,26.43
2016-06-11T12:27:38.605Z,27
2016-06-11T12:28:38.702Z,27.48
2016-06-11T12:29:38.735Z,26.9
2016-06-11T12:30:38.770Z,27.87
2016-06-11T12:31:38.883Z,27.48
2016-06-11T12:32:38.917Z,28.83
2016-06-11T12:33:38.936Z,28.9
2016-06-11T12:34:39.001Z,28.7
2016-06-11T12:35:39.068Z,29.58
2016-06-11T12:36:39.102Z,30.73
2016-06-11T12:37:39.151Z,31.13
2016-06-11T12:38:39.232Z,30.66
2016-06-11T12:39:39.282Z,29.38
2016-06-11T12:40:39.317Z,29.5
2016-06-11T12:41:39.398Z,30.08
2016-06-11T12:42:39.448Z,30.27
2016-06-11T12:43:39.482Z,29.88
2016-06-11T12:44:39.563Z,29.8
2016-06-11T12:45:39.598Z,30.37
2016-06-11T12:46:39.522Z,28.91
2016-06-11T12:47:40.150Z,29.79
2016-06-11T12:48:39.747Z,29.3
2016-06-11T12:49:39.828Z,28.72
2016-06-11T12:50:39.895Z,29.01
2016-06-11T12:51:39.912Z,29.88
2016-06-11T12:52:39.995Z,29.3
2016-06-11T12:53:40.091Z,29.02
2016-06-11T12:54:40.079Z,29.71
2016-06-11T12:55:40.144Z,28.54
2016-06-11T12:56:40.210Z,27.76